Lincolnton, North Carolina
Current Conditions -  °F | °C
As of 7:35 AM on Sunday 21 Dec 2014 (Local Time) from KIPJ Reporting Station
Overcast Overcast  
Wind Chill: 40°   Ceiling: 2000
Heat Index: 40°   Visibility: 10mi
Dew Point: 37°   Wind: 0mph
Humidity: 87%   Direction: NA
Pressure: 30.26"   Gusts: NA
Location:  35.47°N, 81.26°W
Report Text: KIPJ 211235Z AUTO 00000KT 10SM OVC020 05/03 A3026 RMK AO2 T00470027
Loading
Personal Weather Stations






























Interactive Weather Map New forecast layout! Learn more

10-Day Weather Forecast

Advertisements
Track Severe Weather on mobile